createdAt,value
2018-12-08T00:00:27.331Z,11.70
2018-12-08T00:02:55.373Z,11.70
2018-12-08T00:05:23.397Z,11.70
2018-12-08T00:07:55.314Z,11.70
2018-12-08T00:10:23.410Z,11.60
2018-12-08T00:12:51.524Z,11.60
2018-12-08T00:15:19.625Z,11.50
2018-12-08T00:17:47.706Z,11.40
2018-12-08T00:20:15.851Z,11.30
2018-12-08T00:22:43.923Z,11.20
2018-12-08T00:25:12.969Z,11.10
2018-12-08T00:27:41.020Z,11.10
2018-12-08T00:30:21.246Z,10.90
2018-12-08T00:32:49.283Z,10.90
2018-12-08T00:35:17.367Z,10.90
2018-12-08T00:37:45.421Z,10.90
2018-12-08T00:40:13.501Z,10.80
2018-12-08T00:42:41.664Z,10.60
2018-12-08T00:45:09.713Z,10.60
2018-12-08T00:47:37.843Z,10.50
2018-12-08T00:50:05.935Z,10.50
2018-12-08T00:52:33.978Z,10.40
2018-12-08T00:55:02.015Z,10.40
2018-12-08T00:57:30.089Z,10.40
2018-12-08T00:59:58.117Z,10.40
2018-12-08T01:02:26.164Z,10.30
2018-12-08T01:04:54.236Z,10.20
2018-12-08T01:07:22.286Z,10.20
2018-12-08T01:09:50.308Z,10.10
2018-12-08T01:12:18.380Z,10.10
2018-12-08T01:14:46.411Z,10.10
2018-12-08T01:17:14.463Z,10.00
2018-12-08T01:19:42.515Z,10.00
2018-12-08T01:22:10.584Z,10.00
2018-12-08T01:24:39.060Z,10.00
2018-12-08T01:27:07.137Z,10.00
2018-12-08T01:29:35.177Z,10.10
2018-12-08T01:32:03.295Z,10.10
2018-12-08T01:34:31.334Z,10.10
2018-12-08T01:36:59.389Z,10.10
2018-12-08T01:39:30.479Z,10.00
2018-12-08T01:41:58.547Z,10.10
2018-12-08T01:44:26.708Z,10.10
2018-12-08T01:46:54.965Z,10.10
2018-12-08T01:49:23.040Z,10.00
2018-12-08T01:51:51.079Z,9.90
2018-12-08T01:54:19.133Z,10.00
2018-12-08T01:56:47.200Z,10.00
2018-12-08T01:59:15.293Z,10.00
2018-12-08T02:01:43.429Z,10.00
2018-12-08T02:04:11.482Z,10.00
2018-12-08T02:06:39.472Z,10.00
2018-12-08T02:09:07.954Z,10.00
2018-12-08T02:11:36.186Z,10.00
2018-12-08T02:14:04.366Z,10.10
2018-12-08T02:16:32.471Z,9.90
2018-12-08T02:19:00.490Z,9.80
2018-12-08T02:21:28.591Z,9.90
2018-12-08T02:23:56.612Z,9.90
2018-12-08T02:26:24.636Z,9.80
2018-12-08T02:28:52.773Z,9.90
2018-12-08T02:31:20.783Z,9.90
2018-12-08T02:33:48.808Z,10.00
2018-12-08T02:36:16.871Z,9.90
2018-12-08T02:38:44.897Z,9.90
2018-12-08T02:41:13.014Z,9.90
2018-12-08T02:43:41.163Z,9.80
2018-12-08T02:46:09.207Z,9.80
2018-12-08T02:48:37.277Z,9.80
2018-12-08T02:51:05.361Z,9.70
2018-12-08T02:53:33.395Z,9.70
2018-12-08T02:56:01.445Z,9.70
2018-12-08T02:58:29.486Z,9.70
2018-12-08T03:00:57.839Z,9.70
2018-12-08T03:03:26.118Z,9.70
2018-12-08T03:05:54.314Z,9.60
2018-12-08T03:08:22.355Z,9.70
2018-12-08T03:10:50.382Z,9.60
2018-12-08T03:13:18.585Z,9.60
2018-12-08T03:15:46.625Z,9.70
2018-12-08T03:18:14.654Z,9.70
2018-12-08T03:20:42.701Z,9.70
2018-12-08T03:23:10.731Z,9.80
2018-12-08T03:25:38.790Z,9.70
2018-12-08T03:28:07.119Z,9.80
2018-12-08T03:30:35.186Z,9.80
2018-12-08T03:33:03.267Z,9.80
2018-12-08T03:35:31.455Z,9.80
2018-12-08T03:37:59.508Z,9.80
2018-12-08T03:40:27.537Z,9.80
2018-12-08T03:42:55.700Z,9.70
2018-12-08T03:45:23.734Z,9.70
2018-12-08T03:47:51.764Z,9.70
2018-12-08T03:50:19.916Z,9.70
2018-12-08T03:52:47.933Z,9.70
2018-12-08T03:55:16.307Z,9.70
2018-12-08T03:57:44.348Z,9.70
2018-12-08T04:00:12.399Z,9.70
2018-12-08T04:02:40.448Z,9.70
2018-12-08T04:05:09.307Z,9.60
2018-12-08T04:07:37.361Z,9.60
2018-12-08T04:10:05.463Z,9.60
2018-12-08T04:12:33.586Z,9.50
2018-12-08T04:15:01.765Z,9.50
2018-12-08T04:17:29.809Z,9.50
2018-12-08T04:19:57.836Z,9.50
2018-12-08T04:22:26.020Z,9.40
2018-12-08T04:24:54.069Z,9.40
2018-12-08T04:27:22.098Z,9.40
2018-12-08T04:29:50.241Z,9.40
2018-12-08T04:32:18.280Z,9.30
2018-12-08T04:34:46.312Z,9.30
2018-12-08T04:37:14.357Z,9.30
2018-12-08T04:39:42.398Z,9.30
2018-12-08T04:42:10.583Z,9.30
2018-12-08T04:44:38.632Z,9.30
2018-12-08T04:47:06.666Z,9.40
2018-12-08T04:49:35.244Z,9.40
2018-12-08T04:52:03.573Z,9.40
2018-12-08T04:54:31.633Z,9.40
2018-12-08T04:56:59.828Z,9.40
2018-12-08T04:59:28.372Z,9.30
2018-12-08T05:01:56.450Z,9.30
2018-12-08T05:04:24.614Z,9.20
2018-12-08T05:06:52.644Z,9.20
2018-12-08T05:09:20.684Z,9.20
2018-12-08T05:11:48.874Z,9.20
2018-12-08T05:14:16.916Z,9.20
2018-12-08T05:16:44.929Z,9.20
2018-12-08T05:19:12.972Z,9.20
2018-12-08T05:21:41.026Z,9.20
2018-12-08T05:24:09.116Z,9.20
2018-12-08T05:26:37.171Z,9.20
2018-12-08T05:29:05.257Z,9.30
2018-12-08T05:31:33.330Z,9.30
2018-12-08T05:34:01.373Z,9.30
2018-12-08T05:36:29.400Z,9.30
2018-12-08T05:38:58.124Z,9.30
2018-12-08T05:41:26.132Z,9.20
2018-12-08T05:43:54.221Z,9.20
2018-12-08T05:46:22.300Z,9.20
2018-12-08T05:48:50.377Z,9.20
2018-12-08T05:51:18.414Z,9.10
2018-12-08T05:53:46.456Z,9.10
2018-12-08T05:56:14.526Z,9.10
2018-12-08T06:01:15.956Z,9.00
2018-12-08T06:03:44.233Z,8.90
2018-12-08T06:06:12.309Z,8.90
2018-12-08T06:08:40.367Z,8.90
2018-12-08T06:11:08.433Z,9.00
2018-12-08T06:13:36.478Z,9.00
2018-12-08T06:16:04.534Z,9.00
2018-12-08T06:18:32.599Z,9.00
2018-12-08T06:21:00.660Z,9.00
2018-12-08T06:23:29.899Z,9.10
2018-12-08T06:26:00.116Z,9.10
2018-12-08T06:28:31.306Z,9.20
2018-12-08T06:30:59.338Z,9.20
2018-12-08T06:33:27.371Z,9.20
2018-12-08T06:35:55.419Z,9.30
2018-12-08T06:38:25.362Z,9.20
2018-12-08T06:40:53.721Z,9.20
2018-12-08T06:43:22.042Z,9.10
2018-12-08T06:45:50.066Z,9.00
2018-12-08T06:48:18.119Z,9.00
2018-12-08T06:50:46.185Z,9.00
2018-12-08T06:53:14.221Z,9.00
2018-12-08T06:55:42.289Z,8.90
2018-12-08T06:58:10.351Z,8.90
2018-12-08T07:00:38.468Z,8.90
2018-12-08T07:03:06.492Z,8.80
2018-12-08T07:05:34.604Z,8.90
2018-12-08T07:08:02.727Z,8.80
2018-12-08T07:10:30.952Z,8.80
2018-12-08T07:12:59.040Z,8.80
2018-12-08T07:15:27.145Z,8.80
2018-12-08T07:17:55.165Z,8.80
2018-12-08T07:20:23.288Z,8.90
2018-12-08T07:22:51.353Z,8.90
2018-12-08T07:25:19.423Z,8.90
2018-12-08T07:27:47.771Z,8.90
2018-12-08T07:30:15.836Z,8.90
2018-12-08T07:32:43.903Z,9.00
2018-12-08T07:35:12.006Z,9.00
2018-12-08T07:37:40.034Z,9.00
2018-12-08T07:40:08.812Z,9.00
2018-12-08T07:42:36.873Z,9.00
2018-12-08T07:45:05.980Z,9.00
2018-12-08T07:47:34.079Z,9.10
2018-12-08T07:50:02.137Z,9.10
2018-12-08T07:52:30.164Z,9.00
2018-12-08T07:54:58.212Z,9.10
2018-12-08T07:57:26.315Z,9.00
2018-12-08T07:59:54.504Z,9.00
2018-12-08T08:02:22.659Z,9.00
2018-12-08T08:04:50.726Z,9.10
2018-12-08T08:07:18.807Z,9.10
2018-12-08T08:09:46.961Z,9.10
2018-12-08T08:12:15.078Z,9.10
2018-12-08T08:14:43.230Z,9.10
2018-12-08T08:17:11.275Z,9.10
2018-12-08T08:19:39.753Z,9.10
2018-12-08T08:22:07.803Z,9.10
2018-12-08T08:24:35.831Z,9.10
2018-12-08T08:27:05.276Z,9.00
2018-12-08T08:29:33.317Z,8.90
2018-12-08T08:32:01.341Z,9.00
2018-12-08T08:34:29.393Z,9.10
2018-12-08T08:36:57.486Z,9.10
2018-12-08T08:39:25.534Z,9.20
2018-12-08T08:41:53.590Z,9.20
2018-12-08T08:44:21.651Z,9.20
2018-12-08T08:46:49.746Z,9.20
2018-12-08T08:49:17.772Z,9.20
2018-12-08T08:51:45.870Z,9.20
2018-12-08T08:54:13.897Z,9.20
2018-12-08T08:56:41.935Z,9.30
2018-12-08T08:59:10.007Z,9.20
2018-12-08T09:04:04.001Z,9.20
2018-12-08T09:06:32.301Z,9.20
2018-12-08T09:09:00.461Z,9.30
2018-12-08T09:11:28.564Z,9.20
2018-12-08T09:13:56.596Z,9.20
2018-12-08T09:16:24.652Z,9.20
2018-12-08T09:18:52.731Z,9.30
2018-12-08T09:21:20.757Z,9.30
2018-12-08T09:23:48.824Z,9.30
2018-12-08T09:26:17.060Z,9.30
2018-12-08T09:28:45.190Z,9.30
2018-12-08T09:31:13.260Z,9.20
2018-12-08T09:33:41.319Z,9.30
2018-12-08T09:36:09.364Z,9.40
2018-12-08T09:38:37.377Z,9.40
2018-12-08T09:41:05.446Z,9.40
2018-12-08T09:43:33.577Z,9.40
2018-12-08T09:46:01.760Z,9.50
2018-12-08T09:48:29.784Z,9.50
2018-12-08T09:50:58.020Z,9.40
2018-12-08T09:53:26.045Z,9.40
2018-12-08T09:55:54.085Z,9.50
2018-12-08T09:58:22.241Z,9.50
2018-12-08T10:00:50.309Z,9.50
2018-12-08T10:03:18.340Z,9.50
2018-12-08T10:05:46.067Z,9.60
2018-12-08T10:08:14.135Z,9.60
2018-12-08T10:10:42.157Z,9.70
2018-12-08T10:13:10.229Z,9.70
2018-12-08T10:15:38.301Z,9.70
2018-12-08T10:18:06.339Z,9.80
2018-12-08T10:20:34.469Z,9.80
2018-12-08T10:25:30.444Z,9.80
2018-12-08T10:30:26.001Z,9.90
2018-12-08T10:32:54.070Z,9.90
2018-12-08T10:35:22.144Z,9.80
2018-12-08T10:37:50.244Z,9.90
2018-12-08T10:40:18.354Z,9.90
2018-12-08T10:42:46.417Z,9.90
2018-12-08T10:45:14.515Z,9.80
2018-12-08T10:47:42.564Z,9.80
2018-12-08T10:50:11.276Z,9.90
2018-12-08T10:52:39.332Z,9.90
2018-12-08T10:55:07.605Z,9.90
2018-12-08T10:57:35.652Z,9.90
2018-12-08T11:00:03.929Z,9.90
2018-12-08T11:02:39.629Z,10.00
2018-12-08T11:05:07.837Z,10.00
2018-12-08T11:07:35.970Z,10.00
2018-12-08T11:10:04.457Z,10.00
2018-12-08T11:12:32.505Z,10.10
2018-12-08T11:15:01.030Z,10.00
2018-12-08T11:17:29.192Z,10.10
2018-12-08T11:19:57.256Z,10.00
2018-12-08T11:22:25.341Z,10.00
2018-12-08T11:24:53.408Z,10.00
2018-12-08T11:27:21.465Z,10.00
2018-12-08T11:29:49.819Z,10.10
2018-12-08T11:32:17.865Z,10.00
2018-12-08T11:34:45.917Z,10.10
2018-12-08T11:37:14.000Z,10.10
2018-12-08T11:39:42.057Z,10.00
2018-12-08T11:42:10.090Z,10.00
2018-12-08T11:44:38.405Z,10.10
2018-12-08T11:47:06.452Z,10.10
2018-12-08T11:52:00.708Z,10.10
2018-12-08T11:54:28.798Z,10.10
2018-12-08T11:56:57.004Z,10.20
2018-12-08T11:59:28.109Z,10.20
2018-12-08T12:01:56.183Z,10.20
2018-12-08T12:04:24.221Z,10.10
2018-12-08T12:06:52.481Z,10.00
2018-12-08T12:09:20.558Z,10.10
2018-12-08T12:11:48.641Z,10.20
2018-12-08T12:14:16.985Z,10.20
2018-12-08T12:16:45.014Z,10.20
2018-12-08T12:19:13.077Z,10.20
2018-12-08T12:21:41.468Z,10.20
2018-12-08T12:24:09.548Z,10.20
2018-12-08T12:26:37.584Z,10.20
2018-12-08T12:29:05.641Z,10.20
2018-12-08T12:31:33.773Z,10.20
2018-12-08T12:34:01.844Z,10.20
2018-12-08T12:36:30.012Z,10.30
2018-12-08T12:38:58.079Z,10.40
2018-12-08T12:41:26.131Z,10.30
2018-12-08T12:43:54.266Z,10.30
2018-12-08T12:46:22.298Z,10.30
2018-12-08T12:48:50.386Z,10.40
2018-12-08T12:51:18.512Z,10.40
2018-12-08T12:53:46.581Z,10.30
2018-12-08T12:56:14.671Z,10.40
2018-12-08T12:58:42.789Z,10.40
2018-12-08T13:01:10.960Z,10.50
2018-12-08T13:03:39.256Z,10.40
2018-12-08T13:06:07.475Z,10.40
2018-12-08T13:08:35.490Z,10.40
2018-12-08T13:11:03.525Z,10.50
2018-12-08T13:13:31.610Z,10.40
2018-12-08T13:15:59.662Z,10.40
2018-12-08T13:18:27.735Z,10.30
2018-12-08T13:20:55.797Z,10.40
2018-12-08T13:23:23.896Z,10.40
2018-12-08T13:25:52.045Z,10.30
2018-12-08T13:28:20.093Z,10.30
2018-12-08T13:30:48.227Z,10.30
2018-12-08T13:33:16.278Z,10.40
2018-12-08T13:35:52.811Z,10.40
2018-12-08T13:38:20.938Z,10.40
2018-12-08T13:40:49.139Z,10.40
2018-12-08T13:43:17.180Z,10.50
2018-12-08T13:45:45.234Z,10.50
2018-12-08T13:48:14.893Z,10.50
2018-12-08T13:50:43.304Z,10.60
2018-12-08T13:53:11.346Z,10.60
2018-12-08T13:55:39.438Z,10.60
2018-12-08T13:58:07.494Z,10.50
2018-12-08T14:00:35.864Z,10.50
2018-12-08T14:03:04.000Z,10.50
2018-12-08T14:05:32.041Z,10.50
2018-12-08T14:08:00.163Z,10.40
2018-12-08T14:10:28.227Z,10.30
2018-12-08T14:12:56.271Z,10.30
2018-12-08T14:15:24.360Z,10.30
2018-12-08T14:17:52.440Z,10.20
2018-12-08T14:20:26.111Z,10.20
2018-12-08T14:22:54.188Z,10.20
2018-12-08T14:25:23.026Z,10.10
2018-12-08T14:27:51.524Z,10.10
2018-12-08T14:30:19.560Z,10.10
2018-12-08T14:32:47.619Z,10.10
2018-12-08T14:35:15.734Z,10.10
2018-12-08T14:37:43.777Z,10.20
2018-12-08T14:40:11.915Z,10.10
2018-12-08T14:42:39.952Z,10.10
2018-12-08T14:45:10.300Z,10.10
2018-12-08T14:47:38.732Z,10.10
2018-12-08T14:50:08.795Z,10.10
2018-12-08T14:52:36.996Z,10.10
2018-12-08T14:55:07.393Z,10.10
2018-12-08T14:57:35.458Z,10.00
2018-12-08T15:00:04.722Z,10.00
2018-12-08T15:02:32.744Z,9.90
2018-12-08T15:05:00.767Z,9.90
2018-12-08T15:07:32.629Z,10.00
2018-12-08T15:10:00.733Z,10.00
2018-12-08T15:12:29.060Z,10.00
2018-12-08T15:14:57.321Z,10.00
2018-12-08T15:17:25.603Z,10.00
2018-12-08T15:19:53.819Z,10.00
2018-12-08T15:22:22.910Z,10.00
2018-12-08T15:24:51.002Z,10.00
2018-12-08T15:27:19.133Z,9.90
2018-12-08T15:29:47.346Z,9.90
2018-12-08T15:32:15.448Z,9.90
2018-12-08T15:34:43.481Z,9.90
2018-12-08T15:37:11.640Z,9.90
2018-12-08T15:39:39.700Z,9.90
2018-12-08T15:42:07.773Z,9.90
2018-12-08T15:44:35.843Z,10.00
2018-12-08T15:47:03.921Z,10.00
2018-12-08T15:49:32.031Z,10.00
2018-12-08T15:52:04.087Z,10.00
2018-12-08T15:54:32.163Z,10.00
2018-12-08T15:57:00.250Z,10.00
2018-12-08T15:59:28.455Z,10.00
2018-12-08T16:01:56.530Z,10.00
2018-12-08T16:04:24.901Z,10.00
2018-12-08T16:06:53.082Z,10.00
2018-12-08T16:09:21.113Z,10.10
2018-12-08T16:11:49.181Z,10.10
2018-12-08T16:14:17.238Z,10.20
2018-12-08T16:16:45.291Z,10.20
2018-12-08T16:19:13.428Z,10.10
2018-12-08T16:21:41.496Z,10.10
2018-12-08T16:24:09.630Z,10.00
2018-12-08T16:26:37.631Z,10.00
2018-12-08T16:29:06.017Z,10.00
2018-12-08T16:31:34.077Z,10.10
2018-12-08T16:34:02.182Z,10.00
2018-12-08T16:36:30.244Z,10.00
2018-12-08T16:38:58.405Z,10.00
2018-12-08T16:41:26.457Z,9.90
2018-12-08T16:43:54.544Z,10.00
2018-12-08T16:46:22.613Z,10.00
2018-12-08T16:48:51.012Z,10.00
2018-12-08T16:51:19.053Z,10.00
2018-12-08T16:53:47.246Z,10.00
2018-12-08T16:56:16.277Z,10.00
2018-12-08T16:58:44.435Z,10.00
2018-12-08T17:01:12.495Z,10.00
2018-12-08T17:03:40.573Z,10.00
2018-12-08T17:06:08.644Z,10.00
2018-12-08T17:08:36.852Z,10.00
2018-12-08T17:11:04.980Z,10.00
2018-12-08T17:13:33.056Z,10.00
2018-12-08T17:16:01.207Z,10.10
2018-12-08T17:18:29.261Z,10.10
2018-12-08T17:20:57.288Z,10.10
2018-12-08T17:23:25.412Z,10.00
2018-12-08T17:25:53.487Z,10.00
2018-12-08T17:28:21.729Z,10.00
2018-12-08T17:30:49.954Z,10.00
2018-12-08T17:33:18.003Z,10.10
2018-12-08T17:35:46.180Z,10.10
2018-12-08T17:38:14.295Z,10.10
2018-12-08T17:40:42.382Z,10.10
2018-12-08T17:43:10.641Z,10.10
2018-12-08T17:45:38.766Z,10.10
2018-12-08T17:48:06.948Z,10.10
2018-12-08T17:50:34.991Z,10.10
2018-12-08T17:53:03.256Z,10.10
2018-12-08T17:55:35.040Z,10.20
2018-12-08T17:58:03.165Z,10.20
2018-12-08T18:00:31.300Z,10.10
2018-12-08T18:02:59.474Z,10.10
2018-12-08T18:05:27.576Z,10.10
2018-12-08T18:07:55.672Z,10.00
2018-12-08T18:10:23.779Z,10.10
2018-12-08T18:12:51.984Z,10.10
2018-12-08T18:15:20.033Z,10.10
2018-12-08T18:17:48.121Z,10.10
2018-12-08T18:20:16.278Z,10.10
2018-12-08T18:22:44.480Z,10.10
2018-12-08T18:25:12.737Z,10.10
2018-12-08T18:27:40.916Z,10.10
2018-12-08T18:30:09.131Z,10.20
2018-12-08T18:32:37.545Z,10.20
2018-12-08T18:35:05.726Z,10.20
2018-12-08T18:37:33.836Z,10.20
2018-12-08T18:40:01.981Z,10.20
2018-12-08T18:42:30.032Z,10.30
2018-12-08T18:44:58.413Z,10.30
2018-12-08T18:47:27.350Z,10.30
2018-12-08T18:49:55.705Z,10.20
2018-12-08T18:52:23.816Z,10.30
2018-12-08T18:54:51.825Z,10.30
2018-12-08T18:57:19.881Z,10.30
2018-12-08T18:59:48.075Z,10.20
2018-12-08T19:02:16.115Z,10.20
2018-12-08T19:04:44.233Z,10.20
2018-12-08T19:07:12.341Z,10.20
2018-12-08T19:09:40.389Z,10.20
2018-12-08T19:12:08.431Z,10.20
2018-12-08T19:14:36.529Z,10.20
2018-12-08T19:17:04.750Z,10.20
2018-12-08T19:19:32.847Z,10.20
2018-12-08T19:22:01.027Z,10.20
2018-12-08T19:24:29.127Z,10.20
2018-12-08T19:26:57.245Z,10.20
2018-12-08T19:29:25.430Z,10.20
2018-12-08T19:31:54.079Z,10.20
2018-12-08T19:34:23.824Z,10.20
2018-12-08T19:36:52.304Z,10.20
2018-12-08T19:39:20.360Z,10.20
2018-12-08T19:41:48.444Z,10.30
2018-12-08T19:44:16.610Z,10.30
2018-12-08T19:46:44.706Z,10.20
2018-12-08T19:49:12.776Z,10.10
2018-12-08T19:51:40.945Z,10.10
2018-12-08T19:54:09.108Z,10.10
2018-12-08T19:56:37.210Z,10.00
2018-12-08T19:59:05.360Z,10.00
2018-12-08T20:01:33.427Z,10.00
2018-12-08T20:04:01.504Z,10.00
2018-12-08T20:06:29.687Z,9.90
2018-12-08T20:08:57.863Z,9.90
2018-12-08T20:11:26.019Z,9.90
2018-12-08T20:13:54.149Z,9.90
2018-12-08T20:16:23.062Z,9.90
2018-12-08T20:18:51.189Z,10.00
2018-12-08T20:21:19.320Z,10.00
2018-12-08T20:23:47.399Z,10.00
2018-12-08T20:26:15.445Z,10.00
2018-12-08T20:28:43.541Z,10.00
2018-12-08T20:31:11.604Z,9.90
2018-12-08T20:33:40.754Z,9.90
2018-12-08T20:36:09.144Z,9.90
2018-12-08T20:38:37.194Z,9.90
2018-12-08T20:41:05.218Z,9.90
2018-12-08T20:43:33.396Z,9.90
2018-12-08T20:46:01.426Z,9.90
2018-12-08T20:48:29.485Z,9.90
2018-12-08T20:50:57.718Z,9.90
2018-12-08T20:53:25.790Z,9.90
2018-12-08T20:55:53.954Z,9.70
2018-12-08T20:58:22.146Z,9.70
2018-12-08T21:00:50.202Z,9.70
2018-12-08T21:03:18.515Z,9.70
2018-12-08T21:05:46.649Z,9.70
2018-12-08T21:08:14.690Z,9.50
2018-12-08T21:10:42.765Z,9.50
2018-12-08T21:13:10.846Z,9.60
2018-12-08T21:15:38.932Z,9.60
2018-12-08T21:18:07.029Z,9.50
2018-12-08T21:20:35.175Z,9.40
2018-12-08T21:23:03.255Z,9.40
2018-12-08T21:25:31.836Z,9.40
2018-12-08T21:27:59.892Z,9.40
2018-12-08T21:30:27.977Z,9.50
2018-12-08T21:32:56.144Z,9.40
2018-12-08T21:35:24.314Z,9.40
2018-12-08T21:37:53.252Z,9.40
2018-12-08T21:40:26.212Z,9.40
2018-12-08T21:42:54.230Z,9.30
2018-12-08T21:45:22.358Z,9.30
2018-12-08T21:47:50.448Z,9.30
2018-12-08T21:50:18.577Z,9.30
2018-12-08T21:52:46.822Z,9.30
2018-12-08T21:55:14.925Z,9.30
2018-12-08T21:57:43.105Z,9.30
2018-12-08T22:00:11.207Z,9.30
2018-12-08T22:02:39.333Z,9.30
2018-12-08T22:05:07.528Z,9.30
2018-12-08T22:07:35.600Z,9.20
2018-12-08T22:10:04.083Z,9.20
2018-12-08T22:12:32.267Z,9.10
2018-12-08T22:15:02.844Z,9.00
2018-12-08T22:17:30.904Z,9.10
2018-12-08T22:19:59.013Z,9.00
2018-12-08T22:22:27.056Z,9.10
2018-12-08T22:24:55.222Z,9.10
2018-12-08T22:27:23.286Z,9.20
2018-12-08T22:29:51.333Z,9.20
2018-12-08T22:32:19.425Z,9.20
2018-12-08T22:34:47.528Z,9.20
2018-12-08T22:37:15.562Z,9.20
2018-12-08T22:39:43.593Z,9.20
2018-12-08T22:42:11.757Z,9.20
2018-12-08T22:44:40.036Z,9.20
2018-12-08T22:47:08.110Z,9.20
2018-12-08T22:49:36.170Z,9.10
2018-12-08T22:52:04.353Z,9.20
2018-12-08T22:54:32.424Z,9.20
2018-12-08T22:57:00.592Z,9.20
2018-12-08T22:59:28.618Z,9.10
2018-12-08T23:01:57.036Z,9.20
2018-12-08T23:04:25.173Z,9.20
2018-12-08T23:07:01.271Z,9.20
2018-12-08T23:09:29.472Z,9.20
2018-12-08T23:11:57.541Z,9.20
2018-12-08T23:14:25.684Z,9.20
2018-12-08T23:16:53.758Z,9.30
2018-12-08T23:19:21.844Z,9.30
2018-12-08T23:21:49.908Z,9.40
2018-12-08T23:24:17.957Z,9.40
2018-12-08T23:26:46.044Z,9.40
2018-12-08T23:29:14.356Z,9.40
2018-12-08T23:31:42.494Z,9.50
2018-12-08T23:34:10.562Z,9.40
2018-12-08T23:36:38.734Z,9.40
2018-12-08T23:39:07.404Z,9.40
2018-12-08T23:41:35.600Z,9.50
2018-12-08T23:44:03.645Z,9.50
2018-12-08T23:46:31.735Z,9.50
2018-12-08T23:48:59.847Z,9.40
2018-12-08T23:51:27.991Z,9.40
2018-12-08T23:53:56.065Z,9.30
2018-12-08T23:56:24.264Z,9.40
2018-12-08T23:58:52.368Z,9.50
